Time;durP1;ratioP1;P1;durP2;ratioP2;P2;SDS_P1;SDS_P2;PMS_P1;PMS_P2;Temp;Humidity;BMP_temperature;BMP_pressure;BME280_temperature;BME280_humidity;BME280_pressure;Samples;Min_cycle;Max_cycle;Signal;HPM_P1;HPM_P2
2021/10/19 00:01:20;;;;;;;;;;;;;;;18.61;77.15;101949.66;5012229;28;1471;-59
2021/10/19 00:03:47;;;;;;;;;;;;;;;18.54;77.34;101947.50;5000393;28;1365;-56
2021/10/19 00:06:15;;;;;;;;;;;;;;;18.54;76.20;101936.78;5003293;28;1546;-57
2021/10/19 00:08:41;;;;;;;;;;;;;;;18.52;77.13;101942.25;5009286;28;1766;-56
2021/10/19 00:11:08;;;;;;;;;;;;;;;18.52;77.00;101947.59;5006253;28;1550;-56
2021/10/19 00:13:36;;;;;;;;;;;;;;;18.49;76.86;101947.81;5009466;28;1910;-56
2021/10/19 00:16:03;;;;;;;;;;;;;;;18.53;76.87;101954.69;5006899;28;1428;-58
2021/10/19 00:18:29;;;;;;;;;;;;;;;18.52;76.53;101946.75;4998600;28;1652;-57
2021/10/19 00:20:56;;;;;;;;;;;;;;;18.48;76.78;101946.97;5007103;28;1714;-58
2021/10/19 00:23:24;;;;;;;;;;;;;;;18.45;76.67;101930.25;5009230;28;1444;-59
2021/10/19 00:25:50;;;;;;;;;;;;;;;18.46;77.53;101945.34;5009988;28;1649;-56
2021/10/19 00:28:17;;;;;;;;;;;;;;;18.45;77.44;101951.66;5008967;28;1342;-58
2021/10/19 00:30:43;;;;;;;;;;;;;;;18.46;77.40;101956.03;5009654;28;1432;-58
2021/10/19 00:33:10;;;;;;;;;;;;;;;18.45;77.47;101949.00;5008940;28;1597;-59
2021/10/19 00:35:36;;;;;;;;;;;;;;;18.47;76.76;101939.03;5010071;28;1965;-59
2021/10/19 00:38:03;;;;;;;;;;;;;;;18.47;77.17;101931.00;4999581;28;1630;-59
2021/10/19 00:40:35;;;;;;;;;;;;;;;18.45;76.21;101941.81;5008064;28;1732;-56
2021/10/19 00:43:02;;;;;;;;;;;;;;;18.46;76.67;101938.19;5008112;28;1527;-58
2021/10/19 00:45:28;;;;;;;;;;;;;;;18.43;76.74;101943.72;5001127;28;1393;-56
2021/10/19 00:47:56;;;;;;;;;;;;;;;18.45;76.31;101943.63;5008545;28;1701;-57
2021/10/19 00:50:22;;;;;;;;;;;;;;;18.41;76.30;101937.63;5015563;28;1312;-59
2021/10/19 00:52:49;;;;;;;;;;;;;;;18.44;77.43;101957.97;5006656;28;1450;-58
2021/10/19 00:55:16;;;;;;;;;;;;;;;18.44;76.48;101955.28;5013141;28;1910;-56
2021/10/19 00:57:45;;;;;;;;;;;;;;;18.42;77.45;101942.03;5015724;28;1413;-56
2021/10/19 01:00:12;;;;;;;;;;;;;;;18.46;76.69;101950.69;5014726;28;1597;-56
2021/10/19 01:02:42;;;;;;;;;;;;;;;18.44;76.79;101952.63;5011519;28;1622;-58
2021/10/19 01:05:09;;;;;;;;;;;;;;;18.44;77.09;101952.63;5017119;28;1358;-56
2021/10/19 01:07:36;;;;;;;;;;;;;;;18.45;76.67;101947.16;5007201;28;1420;-56
2021/10/19 01:10:04;;;;;;;;;;;;;;;18.42;76.94;101949.19;5011867;28;1665;-57
2021/10/19 01:12:31;;;;;;;;;;;;;;;18.43;77.20;101948.25;5012159;28;1717;-56
2021/10/19 01:14:59;;;;;;;;;;;;;;;18.47;77.24;101949.75;5015025;28;1918;-56
2021/10/19 01:17:25;;;;;;;;;;;;;;;18.42;77.16;101952.75;5007771;28;1754;-57
2021/10/19 01:19:53;;;;;;;;;;;;;;;18.41;76.59;101948.31;5011709;28;1511;-56
2021/10/19 01:22:20;;;;;;;;;;;;;;;18.42;76.21;101946.50;5014599;28;1873;-56
2021/10/19 01:24:47;;;;;;;;;;;;;;;18.44;77.06;101949.94;5012035;28;1698;-59
2021/10/19 01:27:13;;;;;;;;;;;;;;;18.40;76.67;101948.44;5007259;28;1869;-56
2021/10/19 01:29:40;;;;;;;;;;;;;;;18.38;77.28;101947.66;5015843;28;1392;-58
2021/10/19 01:32:07;;;;;;;;;;;;;;;18.39;76.59;101941.38;5014239;28;1408;-58
2021/10/19 01:34:34;;;;;;;;;;;;;;;18.43;76.25;101953.59;5014432;28;1898;-58
2021/10/19 01:37:02;;;;;;;;;;;;;;;18.38;77.37;101964.63;5006177;28;1449;-56
2021/10/19 01:39:28;;;;;;;;;;;;;;;18.36;76.92;101953.13;5008464;28;1383;-58
2021/10/19 01:41:55;;;;;;;;;;;;;;;18.40;77.32;101961.81;5011275;28;1713;-58
2021/10/19 01:44:22;;;;;;;;;;;;;;;18.39;76.14;101946.72;5008684;28;1745;-58
2021/10/19 01:46:48;;;;;;;;;;;;;;;18.38;76.30;101950.34;5012073;28;1319;-56
2021/10/19 01:49:15;;;;;;;;;;;;;;;18.42;76.64;101957.22;5013657;28;1776;-58
2021/10/19 01:51:41;;;;;;;;;;;;;;;18.36;77.10;101957.63;5011383;28;1649;-58
2021/10/19 01:54:09;;;;;;;;;;;;;;;18.36;77.27;101961.16;5011836;28;1907;-56
2021/10/19 01:56:36;;;;;;;;;;;;;;;18.39;76.94;101952.09;5013299;28;1733;-56
2021/10/19 01:59:02;;;;;;;;;;;;;;;18.36;76.22;101957.63;5011215;28;1415;-57
2021/10/19 02:01:29;;;;;;;;;;;;;;;18.33;77.38;101971.25;5006908;28;1478;-56
2021/10/19 02:03:55;;;;;;;;;;;;;;;18.34;76.74;101964.91;5012446;28;1781;-58
2021/10/19 02:06:22;;;;;;;;;;;;;;;18.41;76.37;101966.22;5004368;28;1526;-56
2021/10/19 02:08:48;;;;;;;;;;;;;;;18.41;76.41;101961.72;5013651;28;1415;-58
2021/10/19 02:11:16;;;;;;;;;;;;;;;18.42;76.04;101974.16;5013612;28;1562;-56
2021/10/19 02:13:43;;;;;;;;;;;;;;;18.39;76.42;101971.69;5008203;28;1435;-56
2021/10/19 02:16:09;;;;;;;;;;;;;;;18.36;77.17;101973.69;5008059;28;1969;-58
2021/10/19 02:18:36;;;;;;;;;;;;;;;18.36;76.01;101968.34;5011147;28;1704;-58
2021/10/19 02:21:03;;;;;;;;;;;;;;;18.34;77.22;101973.78;5004826;28;1354;-58
2021/10/19 02:23:29;;;;;;;;;;;;;;;18.46;75.94;101988.19;5008783;28;1335;-58
2021/10/19 02:25:56;;;;;;;;;;;;;;;19.01;74.07;101976.44;5012454;28;1422;-56
2021/10/19 02:28:24;;;;;;;;;;;;;;;19.17;73.80;101978.06;5005272;28;1349;-59
2021/10/19 02:30:50;;;;;;;;;;;;;;;19.05;74.88;101983.31;5009366;28;1311;-59
2021/10/19 02:33:17;;;;;;;;;;;;;;;19.22;75.27;101983.97;5015156;28;1710;-56
2021/10/19 02:35:44;;;;;;;;;;;;;;;19.46;74.06;101984.06;5008659;28;1910;-58
2021/10/19 02:38:10;;;;;;;;;;;;;;;19.61;73.50;101984.78;5007216;28;1376;-59
2021/10/19 02:40:37;;;;;;;;;;;;;;;19.71;73.35;101980.50;5012965;28;1649;-58
2021/10/19 02:43:03;;;;;;;;;;;;;;;19.58;72.82;101975.13;5014376;28;1523;-56
2021/10/19 02:45:31;;;;;;;;;;;;;;;19.38;73.85;101981.91;5012968;28;1763;-56
2021/10/19 02:47:58;;;;;;;;;;;;;;;19.20;75.13;102001.97;5000100;28;1377;-56
2021/10/19 02:50:24;;;;;;;;;;;;;;;19.24;74.36;101987.41;5005640;28;1248;-58
2021/10/19 02:52:51;;;;;;;;;;;;;;;19.49;73.84;101989.19;5000914;28;1421;-56
2021/10/19 02:55:18;;;;;;;;;;;;;;;19.61;72.89;101995.53;5005744;28;1910;-56
2021/10/19 02:57:45;;;;;;;;;;;;;;;19.64;72.81;102001.53;5010654;28;1626;-56
2021/10/19 03:00:12;;;;;;;;;;;;;;;19.38;74.37;101989.13;5015181;28;1391;-56
2021/10/19 03:02:40;;;;;;;;;;;;;;;19.24;74.84;101992.78;5007259;28;1475;-56
2021/10/19 03:05:07;;;;;;;;;;;;;;;19.43;74.20;101998.53;5010381;28;1589;-56
2021/10/19 03:07:33;;;;;;;;;;;;;;;19.71;72.82;102007.34;5002258;28;1412;-59
2021/10/19 03:10:00;;;;;;;;;;;;;;;19.88;72.14;102000.78;5006331;28;1531;-56
2021/10/19 03:12:27;;;;;;;;;;;;;;;19.56;73.84;102003.91;5012197;28;1689;-59
2021/10/19 03:14:53;;;;;;;;;;;;;;;19.33;74.62;102024.28;5005379;28;1906;-59
2021/10/19 03:17:20;;;;;;;;;;;;;;;19.40;73.99;102024.75;5010999;28;1753;-56
2021/10/19 03:19:48;;;;;;;;;;;;;;;19.63;72.82;102017.72;5004372;28;1724;-59
2021/10/19 03:22:15;;;;;;;;;;;;;;;19.75;72.99;102024.94;5012944;28;1414;-56
2021/10/19 03:24:41;;;;;;;;;;;;;;;19.56;73.91;102013.78;5006552;28;1397;-56
2021/10/19 03:27:08;;;;;;;;;;;;;;;19.35;74.37;102013.47;5004399;28;1972;-58
2021/10/19 03:29:34;;;;;;;;;;;;;;;19.37;74.37;102025.78;5004830;28;1603;-59
2021/10/19 03:32:01;;;;;;;;;;;;;;;19.56;73.16;102029.88;5011965;28;1991;-57
2021/10/19 03:34:28;;;;;;;;;;;;;;;19.84;72.26;102024.28;5005210;28;1899;-58
2021/10/19 03:36:56;;;;;;;;;;;;;;;19.66;72.72;102026.44;4997314;28;1295;-59
2021/10/19 03:39:22;;;;;;;;;;;;;;;19.44;73.48;102010.16;5013198;28;1733;-56
2021/10/19 03:41:49;;;;;;;;;;;;;;;19.40;73.06;102027.44;5013974;28;1772;-56
2021/10/19 03:44:15;;;;;;;;;;;;;;;19.57;73.13;102028.91;5008464;28;1425;-59
2021/10/19 03:46:42;;;;;;;;;;;;;;;19.81;72.51;102029.88;5009006;28;1712;-56
2021/10/19 03:49:08;;;;;;;;;;;;;;;19.67;72.51;102027.28;5010176;28;1417;-56
2021/10/19 03:51:35;;;;;;;;;;;;;;;19.48;73.20;102025.91;4998666;28;1765;-56
2021/10/19 03:54:03;;;;;;;;;;;;;;;19.38;74.35;102038.25;5010574;28;1710;-57
2021/10/19 03:56:29;;;;;;;;;;;;;;;19.41;72.83;102040.72;5007203;28;1902;-58
2021/10/19 03:58:56;;;;;;;;;;;;;;;19.28;73.30;102053.28;5009291;28;1534;-58
2021/10/19 04:01:23;;;;;;;;;;;;;;;19.17;74.70;102045.94;5010388;28;1365;-58
2021/10/19 04:03:49;;;;;;;;;;;;;;;19.07;73.99;102044.88;5003988;28;1357;-59
2021/10/19 04:06:16;;;;;;;;;;;;;;;18.99;74.16;102050.75;5002084;28;1753;-56
2021/10/19 04:08:42;;;;;;;;;;;;;;;18.93;74.76;102042.28;5006785;28;1743;-58
2021/10/19 04:11:10;;;;;;;;;;;;;;;18.90;74.06;102059.44;5013682;28;1342;-56
2021/10/19 04:13:37;;;;;;;;;;;;;;;18.86;74.40;102058.78;5009641;28;1362;-58
2021/10/19 04:16:03;;;;;;;;;;;;;;;18.87;73.84;102057.78;5011738;28;1910;-59
2021/10/19 04:18:30;;;;;;;;;;;;;;;18.90;74.11;102059.44;5005731;28;1748;-58
2021/10/19 04:20:56;;;;;;;;;;;;;;;18.82;74.67;102069.78;5013069;28;1784;-59
2021/10/19 04:23:23;;;;;;;;;;;;;;;18.79;74.47;102051.22;5009643;28;1593;-56
2021/10/19 04:25:49;;;;;;;;;;;;;;;18.80;73.91;102069.03;5008727;28;1523;-56
2021/10/19 04:28:17;;;;;;;;;;;;;;;18.75;75.09;102069.31;5018020;28;1704;-56
2021/10/19 04:30:45;;;;;;;;;;;;;;;18.71;74.60;102062.44;5016663;28;1503;-58
2021/10/19 04:33:12;;;;;;;;;;;;;;;18.73;75.09;102059.66;5010519;28;1312;-56
2021/10/19 04:35:38;;;;;;;;;;;;;;;18.70;75.00;102074.09;5010669;28;1979;-59
2021/10/19 04:38:05;;;;;;;;;;;;;;;18.68;74.28;102066.19;5012620;28;1794;-59
2021/10/19 04:40:31;;;;;;;;;;;;;;;18.66;75.50;102078.81;5011595;28;1381;-59
2021/10/19 04:42:59;;;;;;;;;;;;;;;18.60;74.71;102079.25;5015825;28;1337;-58
2021/10/19 04:45:28;;;;;;;;;;;;;;;18.60;75.22;102060.47;5009030;28;1407;-59
2021/10/19 04:47:54;;;;;;;;;;;;;;;18.61;74.58;102075.59;5015675;28;1861;-58
2021/10/19 04:50:21;;;;;;;;;;;;;;;18.60;75.49;102098.00;5016595;28;1530;-56
2021/10/19 04:52:47;;;;;;;;;;;;;;;18.58;75.81;102091.88;5007899;28;1366;-59
2021/10/19 04:55:14;;;;;;;;;;;;;;;18.59;75.28;102084.69;5011113;28;1910;-58
2021/10/19 04:57:41;;;;;;;;;;;;;;;18.57;75.87;102094.66;5015669;28;1709;-56
2021/10/19 05:00:08;;;;;;;;;;;;;;;18.57;75.49;102092.81;5006897;28;1487;-59
2021/10/19 05:02:42;;;;;;;;;;;;;;;18.59;75.49;102114.16;5010996;28;1431;-56
2021/10/19 05:05:09;;;;;;;;;;;;;;;18.52;75.86;102100.28;5016902;28;1538;-56
2021/10/19 05:07:35;;;;;;;;;;;;;;;18.50;75.92;102126.31;5014645;28;1437;-59
2021/10/19 05:10:02;;;;;;;;;;;;;;;18.51;75.87;102117.34;5013591;28;1884;-59
2021/10/19 05:12:28;;;;;;;;;;;;;;;18.47;75.58;102122.03;5010457;28;1359;-58
2021/10/19 05:14:57;;;;;;;;;;;;;;;18.51;75.81;102121.84;5010953;28;1906;-56
2021/10/19 05:17:23;;;;;;;;;;;;;;;18.46;75.90;102124.78;5014043;28;1516;-56
2021/10/19 05:19:51;;;;;;;;;;;;;;;18.45;76.01;102131.13;5008557;28;1533;-58
2021/10/19 05:22:18;;;;;;;;;;;;;;;18.51;74.92;102138.75;5012771;28;1356;-59
2021/10/19 05:24:44;;;;;;;;;;;;;;;18.51;76.14;102136.09;5014823;28;1590;-56
2021/10/19 05:27:11;;;;;;;;;;;;;;;18.44;75.71;102137.41;5005728;28;1366;-58
2021/10/19 05:29:38;;;;;;;;;;;;;;;18.46;75.02;102139.06;5007521;28;1454;-56
2021/10/19 05:32:05;;;;;;;;;;;;;;;18.46;75.41;102136.38;5013781;28;1630;-56
2021/10/19 05:34:32;;;;;;;;;;;;;;;18.46;75.11;102146.22;5012170;28;1619;-58
2021/10/19 05:37:00;;;;;;;;;;;;;;;18.46;75.62;102146.22;5002056;28;2012;-59
2021/10/19 05:39:26;;;;;;;;;;;;;;;18.42;76.27;102144.69;5014097;28;1498;-56
2021/10/19 05:41:53;;;;;;;;;;;;;;;18.43;75.38;102143.75;5008535;28;1714;-59
2021/10/19 05:44:21;;;;;;;;;;;;;;;18.42;75.25;102150.94;5012977;28;1701;-58
2021/10/19 05:46:47;;;;;;;;;;;;;;;18.44;75.15;102145.47;5015085;28;1475;-58
2021/10/19 05:49:14;;;;;;;;;;;;;;;18.48;74.91;102141.63;5014416;28;1740;-58
2021/10/19 05:51:41;;;;;;;;;;;;;;;18.58;75.33;102164.22;5011672;28;1335;-58
2021/10/19 05:54:09;;;;;;;;;;;;;;;18.55;76.33;102160.84;5013713;28;1677;-57
2021/10/19 05:56:35;;;;;;;;;;;;;;;18.59;76.76;102155.19;5011594;28;1971;-59
2021/10/19 05:59:02;;;;;;;;;;;;;;;18.58;77.70;102156.16;5010934;28;1507;-56
2021/10/19 06:01:28;;;;;;;;;;;;;;;18.63;75.80;102161.22;5006277;28;1826;-57
2021/10/19 06:03:55;;;;;;;;;;;;;;;18.58;78.29;102156.16;5006482;28;1494;-58
2021/10/19 06:06:21;;;;;;;;;;;;;;;18.71;78.07;102156.22;5003202;28;1418;-57
2021/10/19 06:08:51;;;;;;;;;;;;;;;18.69;77.90;102160.81;5004515;28;1614;-58
2021/10/19 06:11:19;;;;;;;;;;;;;;;18.57;78.05;102175.00;5008828;28;1542;-59
2021/10/19 06:13:46;;;;;;;;;;;;;;;18.56;78.89;102175.97;5010549;28;1600;-58
2021/10/19 06:16:12;;;;;;;;;;;;;;;18.50;76.63;102163.81;5010491;28;2387;-59
2021/10/19 06:18:39;;;;;;;;;;;;;;;18.56;77.99;102167.94;5004372;28;1839;-57
2021/10/19 06:21:06;;;;;;;;;;;;;;;18.66;77.65;102177.97;4997545;28;10791;-60
2021/10/19 06:23:32;;;;;;;;;;;;;;;18.76;78.37;102161.28;5008703;28;1300;-58
2021/10/19 06:25:59;;;;;;;;;;;;;;;18.43;75.38;102174.06;5011475;28;1686;-61
2021/10/19 06:28:27;;;;;;;;;;;;;;;18.25;76.18;102197.50;5012198;28;1760;-60
2021/10/19 06:30:53;;;;;;;;;;;;;;;18.32;78.15;102181.91;5013261;28;1408;-56
2021/10/19 06:33:20;;;;;;;;;;;;;;;18.47;78.54;102185.47;5006574;28;1633;-58
2021/10/19 06:35:46;;;;;;;;;;;;;;;18.54;79.63;102193.94;5012297;28;1906;-56
2021/10/19 06:38:13;;;;;;;;;;;;;;;18.53;79.25;102193.09;5009213;28;1435;-56
2021/10/19 06:40:40;;;;;;;;;;;;;;;18.57;79.43;102191.09;5003317;28;1419;-58
2021/10/19 06:43:06;;;;;;;;;;;;;;;18.56;81.59;102192.91;5009797;28;1495;-56
2021/10/19 06:45:34;;;;;;;;;;;;;;;19.00;81.83;102191.00;5004836;28;1342;-58
2021/10/19 06:48:01;;;;;;;;;;;;;;;19.23;80.55;102194.84;5007169;28;1495;-55
2021/10/19 06:50:27;;;;;;;;;;;;;;;19.17;80.41;102203.31;5011822;28;1700;-55
2021/10/19 06:52:54;;;;;;;;;;;;;;;19.16;80.58;102204.25;5004440;28;1807;-60
2021/10/19 06:55:22;;;;;;;;;;;;;;;19.17;80.31;102220.25;5013087;28;1589;-60
2021/10/19 06:57:49;;;;;;;;;;;;;;;19.62;79.30;102196.69;5008306;28;1697;-59
2021/10/19 07:00:16;;;;;;;;;;;;;;;19.34;79.81;102197.69;5004962;28;1667;-59
2021/10/19 07:02:44;;;;;;;;;;;;;;;19.25;80.50;102192.94;5011679;28;1704;-55
2021/10/19 07:05:11;;;;;;;;;;;;;;;19.34;79.78;102203.06;5013123;28;1499;-59
2021/10/19 07:07:40;;;;;;;;;;;;;;;19.33;79.34;102201.31;5005516;28;1693;-58
2021/10/19 07:10:07;;;;;;;;;;;;;;;19.33;79.86;102212.06;5008529;28;1701;-55
2021/10/19 07:12:36;;;;;;;;;;;;;;;19.31;80.00;102208.59;5012860;28;1530;-58
2021/10/19 07:15:03;;;;;;;;;;;;;;;19.19;79.40;102214.78;5009834;28;1320;-55
2021/10/19 07:17:29;;;;;;;;;;;;;;;19.26;79.13;102208.06;5012090;28;1903;-56
2021/10/19 07:19:57;;;;;;;;;;;;;;;19.21;79.75;102219.09;5013900;28;1865;-63
2021/10/19 07:22:25;;;;;;;;;;;;;;;19.25;79.39;102230.47;5011430;28;1870;-56
2021/10/19 07:24:52;;;;;;;;;;;;;;;19.31;80.05;102218.50;5010472;28;1505;-61
2021/10/19 07:27:18;;;;;;;;;;;;;;;19.25;79.54;102241.19;5014006;28;1447;-59
2021/10/19 07:29:45;;;;;;;;;;;;;;;19.32;79.43;102228.25;5007058;28;1542;-56
2021/10/19 07:32:11;;;;;;;;;;;;;;;19.26;79.50;102232.22;5009250;28;1801;-56
2021/10/19 07:34:38;;;;;;;;;;;;;;;19.26;79.60;102242.94;5014298;28;1753;-60
2021/10/19 07:37:06;;;;;;;;;;;;;;;19.38;78.67;102234.06;5011397;28;1906;-56
2021/10/19 07:39:32;;;;;;;;;;;;;;;19.35;78.64;102228.06;5007769;28;1284;-60
2021/10/19 07:41:59;;;;;;;;;;;;;;;19.42;79.02;102227.53;5013777;28;1650;-56
2021/10/19 07:44:26;;;;;;;;;;;;;;;19.48;77.81;102242.38;5010916;28;1609;-56
2021/10/19 07:46:52;;;;;;;;;;;;;;;19.37;78.25;102237.72;5006466;28;1717;-60
2021/10/19 07:49:19;;;;;;;;;;;;;;;19.41;78.50;102241.91;5003408;28;1513;-59
2021/10/19 07:51:46;;;;;;;;;;;;;;;19.40;78.82;102228.63;5003534;28;1733;-60
2021/10/19 07:54:14;;;;;;;;;;;;;;;19.41;78.95;102241.03;5009485;28;1491;-55
2021/10/19 07:56:41;;;;;;;;;;;;;;;19.74;76.67;102235.28;5002663;28;1913;-56
2021/10/19 07:59:07;;;;;;;;;;;;;;;19.78;73.83;102219.81;5009891;28;1706;-54
2021/10/19 08:01:34;;;;;;;;;;;;;;;19.58;77.66;102229.19;5011386;28;1526;-55
2021/10/19 08:04:01;;;;;;;;;;;;;;;19.78;76.29;102225.19;5009234;28;1733;-58
2021/10/19 08:06:27;;;;;;;;;;;;;;;19.84;75.79;102227.44;4997418;28;1327;-55
2021/10/19 08:08:54;;;;;;;;;;;;;;;20.10;75.72;102231.00;5007812;28;1728;-58
2021/10/19 08:11:22;;;;;;;;;;;;;;;19.91;76.73;102222.50;5008426;28;1976;-58
2021/10/19 08:13:50;;;;;;;;;;;;;;;19.82;76.01;102224.00;5003441;28;1982;-58
2021/10/19 08:16:16;;;;;;;;;;;;;;;19.74;77.23;102223.69;5008156;28;1906;-55
2021/10/19 08:18:43;;;;;;;;;;;;;;;19.84;75.88;102216.72;5011457;28;1524;-58
2021/10/19 08:21:10;;;;;;;;;;;;;;;19.76;76.50;102225.28;5011465;28;1767;-55
2021/10/19 08:23:37;;;;;;;;;;;;;;;19.91;75.90;102219.81;5008936;28;1521;-59
2021/10/19 08:26:03;;;;;;;;;;;;;;;19.98;76.65;102213.06;5011095;28;1458;-58
2021/10/19 08:28:31;;;;;;;;;;;;;;;20.31;74.47;102222.41;5004984;28;1582;-56
2021/10/19 08:30:58;;;;;;;;;;;;;;;20.26;75.48;102214.69;5010663;28;1634;-57
2021/10/19 08:33:25;;;;;;;;;;;;;;;20.11;76.14;102213.91;5011069;28;1281;-55
2021/10/19 08:35:52;;;;;;;;;;;;;;;20.09;76.42;102217.69;5001991;28;1277;-56
2021/10/19 08:38:18;;;;;;;;;;;;;;;20.03;75.28;102225.22;5004561;28;1902;-55
2021/10/19 08:40:45;;;;;;;;;;;;;;;19.96;76.24;102225.75;5006933;28;1704;-55
2021/10/19 08:43:12;;;;;;;;;;;;;;;19.89;76.28;102225.28;5007010;28;1626;-55
2021/10/19 08:45:40;;;;;;;;;;;;;;;19.78;76.72;102217.13;5012064;28;1403;-59
2021/10/19 08:48:08;;;;;;;;;;;;;;;20.00;75.06;102206.63;5011536;28;1650;-59
2021/10/19 08:50:34;;;;;;;;;;;;;;;19.98;75.04;102218.44;5003614;28;1585;-59
2021/10/19 08:53:01;;;;;;;;;;;;;;;19.90;74.99;102200.19;5003820;28;1292;-58
2021/10/19 08:55:27;;;;;;;;;;;;;;;19.79;75.61;102202.72;5012002;28;1455;-55
2021/10/19 08:57:56;;;;;;;;;;;;;;;20.16;75.35;102206.41;5011456;28;1910;-57
2021/10/19 09:00:27;;;;;;;;;;;;;;;19.95;75.24;102191.78;5010050;28;1869;-55
2021/10/19 09:02:56;;;;;;;;;;;;;;;19.95;75.50;102208.75;5005434;28;1428;-55
2021/10/19 09:05:23;;;;;;;;;;;;;;;19.81;76.20;102212.38;5004281;28;1359;-58
2021/10/19 09:07:57;;;;;;;;;;;;;;;20.24;74.24;102209.41;5000740;28;1784;-58
2021/10/19 09:10:23;;;;;;;;;;;;;;;20.05;75.22;102203.59;5005926;28;1284;-59
2021/10/19 09:12:54;;;;;;;;;;;;;;;19.98;74.79;102203.19;5009354;28;1525;-59
2021/10/19 09:15:21;;;;;;;;;;;;;;;19.89;75.13;102201.13;5009627;28;1259;-59
2021/10/19 09:17:47;;;;;;;;;;;;;;;20.11;74.38;102192.44;5005096;28;1914;-58
2021/10/19 09:20:16;;;;;;;;;;;;;;;19.96;75.19;102199.75;5013498;28;1440;-59
2021/10/19 09:22:52;;;;;;;;;;;;;;;20.05;73.92;102195.53;5007395;28;1578;-59
2021/10/19 09:25:24;;;;;;;;;;;;;;;19.81;73.18;102196.28;5009023;28;1498;-59
2021/10/19 09:27:52;;;;;;;;;;;;;;;19.80;74.17;102204.47;5014491;28;1393;-58
2021/10/19 09:30:18;;;;;;;;;;;;;;;19.84;74.41;102198.78;5009307;28;1701;-58
2021/10/19 09:32:50;;;;;;;;;;;;;;;19.80;72.95;102197.28;5011194;28;1470;-59
2021/10/19 09:35:21;;;;;;;;;;;;;;;19.82;73.73;102197.16;5011284;28;1370;-56
2021/10/19 09:37:55;;;;;;;;;;;;;;;19.83;73.67;102167.50;5004077;28;1910;-56
2021/10/19 09:40:29;;;;;;;;;;;;;;;19.84;73.19;102174.63;5009225;28;1523;-56
2021/10/19 09:42:59;;;;;;;;;;;;;;;19.71;73.88;102171.06;5015605;28;1500;-56
2021/10/19 09:45:26;;;;;;;;;;;;;;;19.78;72.03;102171.50;5009027;28;1401;-58
2021/10/19 09:47:53;;;;;;;;;;;;;;;19.75;74.34;102175.25;5011818;28;1404;-58
2021/10/19 09:50:21;;;;;;;;;;;;;;;19.68;74.20;102165.88;5015441;28;1351;-56
2021/10/19 09:52:48;;;;;;;;;;;;;;;19.70;73.23;102177.38;5007269;28;1737;-56
2021/10/19 09:55:17;;;;;;;;;;;;;;;19.66;74.71;102174.03;5012393;28;1534;-56
2021/10/19 09:57:44;;;;;;;;;;;;;;;19.61;74.37;102164.56;5009072;28;1974;-57
2021/10/19 10:00:11;;;;;;;;;;;;;;;19.76;73.00;102168.06;5014862;28;1407;-57
2021/10/19 10:02:38;;;;;;;;;;;;;;;19.72;71.88;102164.72;5012615;28;1797;-56
2021/10/19 10:05:05;;;;;;;;;;;;;;;19.82;66.03;102165.81;5010460;28;1515;-58
2021/10/19 10:07:35;;;;;;;;;;;;;;;18.97;59.16;102159.06;5008805;28;1657;-56
2021/10/19 10:10:02;;;;;;;;;;;;;;;18.93;64.63;102155.72;5012359;28;1457;-56
2021/10/19 10:12:29;;;;;;;;;;;;;;;19.06;64.13;102145.91;5013733;28;1356;-56
2021/10/19 10:14:56;;;;;;;;;;;;;;;19.05;63.88;102149.53;5016489;28;1513;-56
2021/10/19 10:17:22;;;;;;;;;;;;;;;18.82;61.51;102147.50;5009284;28;1986;-57
2021/10/19 10:19:49;;;;;;;;;;;;;;;18.88;62.90;102147.13;5003089;28;1411;-56
2021/10/19 10:22:16;;;;;;;;;;;;;;;18.85;57.92;102158.88;5010997;28;1364;-58
2021/10/19 10:24:44;;;;;;;;;;;;;;;18.64;61.96;102155.78;5014379;28;1701;-58
2021/10/19 10:27:13;;;;;;;;;;;;;;;18.72;61.43;102146.34;5012847;28;1324;-58
2021/10/19 10:29:40;;;;;;;;;;;;;;;18.78;62.27;102135.22;5007630;28;1757;-57
2021/10/19 10:32:07;;;;;;;;;;;;;;;18.80;60.42;102138.69;5007395;28;1436;-58
2021/10/19 10:34:34;;;;;;;;;;;;;;;18.78;60.90;102154.00;5011262;28;1753;-59
2021/10/19 10:37:10;;;;;;;;;;;;;;;18.61;58.36;102134.53;5004096;28;1985;-55
2021/10/19 10:39:40;;;;;;;;;;;;;;;18.73;60.64;102142.72;5012228;28;1581;-57
2021/10/19 10:42:09;;;;;;;;;;;;;;;18.69;60.71;102128.66;5008297;28;1233;-55
2021/10/19 10:44:36;;;;;;;;;;;;;;;18.69;60.42;102124.16;5014558;28;1419;-58
2021/10/19 10:47:04;;;;;;;;;;;;;;;18.49;58.54;102136.16;5006433;28;1525;-57
2021/10/19 10:49:31;;;;;;;;;;;;;;;18.63;60.97;102147.81;5014083;28;1590;-58
2021/10/19 10:51:59;;;;;;;;;;;;;;;18.64;57.11;102128.09;4999505;28;1593;-55
2021/10/19 10:54:26;;;;;;;;;;;;;;;18.55;54.93;102131.41;5011852;28;1504;-56
2021/10/19 10:56:54;;;;;;;;;;;;;;;18.48;54.76;102123.75;5008914;28;1914;-56
2021/10/19 10:59:26;;;;;;;;;;;;;;;18.48;53.68;102136.25;5006979;28;1700;-59
2021/10/19 11:01:53;;;;;;;;;;;;;;;18.47;53.85;102121.16;5013340;28;1422;-58
2021/10/19 11:04:19;;;;;;;;;;;;;;;18.53;53.28;102125.28;5016189;28;1601;-58
2021/10/19 11:06:46;;;;;;;;;;;;;;;18.58;54.12;102129.38;5002701;28;1296;-55
2021/10/19 11:09:13;;;;;;;;;;;;;;;18.53;55.23;102126.13;5011743;28;1722;-57
2021/10/19 11:11:41;;;;;;;;;;;;;;;18.57;52.50;102130.31;5007227;28;1486;-58
2021/10/19 11:14:09;;;;;;;;;;;;;;;18.14;54.31;102119.66;5010860;28;1573;-60
2021/10/19 11:16:39;;;;;;;;;;;;;;;18.40;54.87;102103.75;5012135;28;1507;-57
2021/10/19 11:19:06;;;;;;;;;;;;;;;18.37;54.42;102114.69;5009120;28;1969;-56
2021/10/19 11:21:33;;;;;;;;;;;;;;;18.68;55.82;102108.19;5013162;28;1577;-58
2021/10/19 11:24:00;;;;;;;;;;;;;;;18.99;58.15;102120.44;5009033;28;1762;-60
2021/10/19 11:26:27;;;;;;;;;;;;;;;19.05;58.72;102106.63;5017607;28;1691;-56
2021/10/19 11:28:55;;;;;;;;;;;;;;;19.12;57.87;102104.41;5005184;28;1346;-59
2021/10/19 11:31:22;;;;;;;;;;;;;;;19.08;60.01;102111.81;5013886;28;1382;-56
2021/10/19 11:33:50;;;;;;;;;;;;;;;19.03;59.64;102096.97;5012155;28;1236;-61
2021/10/19 11:36:17;;;;;;;;;;;;;;;19.25;59.66;102107.09;5010682;28;1327;-59
2021/10/19 11:38:44;;;;;;;;;;;;;;;19.53;59.94;102110.59;5010697;28;2040;-60
2021/10/19 11:41:12;;;;;;;;;;;;;;;19.42;60.35;102098.78;5011595;28;1320;-61
2021/10/19 11:43:40;;;;;;;;;;;;;;;19.30;60.91;102093.38;5013798;28;1352;-65
2021/10/19 11:46:08;;;;;;;;;;;;;;;19.38;61.76;102099.94;5013948;28;1682;-59
2021/10/19 11:48:34;;;;;;;;;;;;;;;19.31;60.89;102103.16;5013937;28;1403;-58
2021/10/19 11:51:03;;;;;;;;;;;;;;;19.29;62.16;102097.88;4998551;28;1331;-55
2021/10/19 11:53:30;;;;;;;;;;;;;;;19.26;62.35;102095.44;5009854;28;1459;-59
2021/10/19 11:56:00;;;;;;;;;;;;;;;19.25;63.06;102082.97;5012529;28;1688;-55
2021/10/19 11:58:27;;;;;;;;;;;;;;;19.25;63.06;102089.19;5003606;28;1973;-58
2021/10/19 12:00:54;;;;;;;;;;;;;;;19.25;63.03;102077.59;5009593;28;1391;-59
2021/10/19 12:03:20;;;;;;;;;;;;;;;19.35;63.50;102081.38;5011634;28;1604;-59
2021/10/19 12:05:47;;;;;;;;;;;;;;;19.44;62.65;102091.47;5015184;28;1674;-55
2021/10/19 12:08:15;;;;;;;;;;;;;;;19.45;63.31;102079.75;5016230;28;1778;-55
2021/10/19 12:10:47;;;;;;;;;;;;;;;19.33;63.14;102072.56;5012566;28;1399;-55
2021/10/19 12:13:15;;;;;;;;;;;;;;;19.29;63.13;102081.78;5008276;28;1473;-59
2021/10/19 12:15:42;;;;;;;;;;;;;;;19.34;64.21;102074.31;5012873;28;1413;-58
2021/10/19 12:18:14;;;;;;;;;;;;;;;19.36;63.25;102069.69;5007143;28;1975;-55
2021/10/19 12:20:41;;;;;;;;;;;;;;;19.29;63.17;102076.44;5012732;28;1748;-56
2021/10/19 12:23:09;;;;;;;;;;;;;;;19.27;62.32;102076.53;5012887;28;1349;-58
2021/10/19 12:25:38;;;;;;;;;;;;;;;19.23;63.46;102071.50;5012980;28;1759;-55
2021/10/19 12:28:05;;;;;;;;;;;;;;;19.17;63.09;102072.75;5011218;28;1586;-54
2021/10/19 12:30:39;;;;;;;;;;;;;;;19.12;63.98;102080.28;5005352;28;1550;-59
2021/10/19 12:33:09;;;;;;;;;;;;;;;19.18;62.63;102066.47;5005080;28;1357;-58
2021/10/19 12:35:36;;;;;;;;;;;;;;;19.17;64.24;102059.34;5011101;28;1263;-59
2021/10/19 12:38:11;;;;;;;;;;;;;;;19.17;64.42;102069.22;5000669;28;1910;-55
2021/10/19 12:40:44;;;;;;;;;;;;;;;19.18;65.40;102073.63;5006742;28;1396;-57
2021/10/19 12:43:11;;;;;;;;;;;;;;;19.24;64.13;102083.94;5009363;28;1471;-59
2021/10/19 12:45:37;;;;;;;;;;;;;;;19.16;64.34;102070.19;5014853;28;1431;-59
2021/10/19 12:48:04;;;;;;;;;;;;;;;19.25;64.97;102083.81;5013053;28;1662;-55